LDZA/ZAG METAR and TAF weather

Enter ICAO airport designator
Station Type Date Time Source
LDZA METAR 2019/10/22 16:00 UTC NOAA

LDZA 221600Z 08002KT CAVOK 23/15 Q1021 NOSIG


Station Type Date Time Source
LDZA Decoded METAR 2019/10/22 16:00 UTC NOAA

Zagreb / Pleso, Croatia (LDZA) 45-44N 016-04E 107M
Oct 22, 2019 - 12:00 PM EDT / 2019.10.22 1600 UTC
Wind: from the E (080 degrees) at 2 MPH (2 KT):0
Visibility: greater than 7 mile(s):0
Temperature: 73 F (23 C)
Dew Point: 59 F (15 C)
Relative Humidity: 60%
Pressure (altimeter): 30.15 in. Hg (1021 hPa)
ob: LDZA 221600Z 08002KT CAVOK 23/15 Q1021 NOSIG
cycle: 16

Station Type Date Time Source
LDZA TAF 2019/10/22 12:27 UTC NOAA

TAF LDZA 221125Z 2212/2312 VRB02KT CAVOK TX25/2213Z TN08/2304Z
BECMG 2220/2222 2000 BR
BECMG 2222/2300 0200 FG PROB40 2300/2306 0100 VV001
BECMG 2306/2308 CAVOK

Example: see airport list